Stations météo

réclame
Mon MeteoGroup
Alto De Los Leones, Espagne (8217): Température de l'air & dewpoint: 13.06.2018 20:00:00 - 19.06.2018 20:00:00 (CEST)Alto De Los Leones, Espagne (8217): Vitesse du vent & gusts: 13.06.2018 20:00:00 - 19.06.2018 20:00:00 (CEST)Alto De Los Leones, Espagne (8217): Direction du vent: 13.06.2018 20:00:00 - 19.06.2018 20:00:00 (CEST)Alto De Los Leones, Espagne (8217): Quantités de précipitations: 13.06.2018 20:00:00 - 19.06.2018 20:00:00 (CEST)
Date & Time tt [°C] td [°C] ff [km/h] ff [knt] fx [km/h] fx [knt] dd rr [mm]
19.06.2018 20:00:00 - - - - - - - -
19.06.2018 19:00:00 23,1 5,5 8 5 16 9 E 0,0
19.06.2018 18:00:00 22,3 4,3 6 4 19 10 E 0,0
19.06.2018 17:00:00 22,5 4,5 11 6 21 11 E 0,0
19.06.2018 16:00:00 22,1 4,6 13 7 28 15 E 0,0
19.06.2018 15:00:00 21,8 4,3 14 8 31 17 E 0,0
19.06.2018 14:00:00 21,3 4,3 17 9 27 14 E -
19.06.2018 13:00:00 20,3 3,9 14 8 26 14 E 0,0
19.06.2018 12:00:00 18,5 3,6 14 8 27 15 N 0,0
19.06.2018 11:00:00 17,6 1,9 17 9 33 18 NE 0,0
19.06.2018 10:00:00 17,7 2,1 17 9 27 15 E 0,0
19.06.2018 09:00:00 16,8 1,7 14 7 23 12 E 0,0
19.06.2018 08:00:00 14,8 2,3 15 8 23 12 E -
19.06.2018 07:00:00 13,1 2,9 16 8 22 12 E 0,0
19.06.2018 06:00:00 12,3 2,5 14 8 21 12 E 0,0
19.06.2018 05:00:00 11,9 3,6 15 8 23 12 E 0,0
19.06.2018 04:00:00 12,0 5,6 16 8 20 11 E 0,0
19.06.2018 03:00:00 13,2 6,7 12 7 16 9 E 0,0
19.06.2018 02:00:00 14,2 8,4 4 2 14 8 E -
19.06.2018 01:00:00 - - - - - - - -
19.06.2018 00:00:00 13,3 8,5 18 10 24 13 E 0,0
18.06.2018 23:00:00 14,7 8,0 17 9 25 14 E 0,0
18.06.2018 22:00:00 16,2 6,5 18 10 27 15 E 0,0
18.06.2018 21:00:00 19,5 5,1 18 10 27 15 E 0,0
18.06.2018 20:00:00 20,8 3,9 19 11 31 17 E -
18.06.2018 19:00:00 22,4 4,5 18 10 30 16 E 0,0
18.06.2018 18:00:00 22,3 4,8 16 9 66 36 E 0,0
18.06.2018 17:00:00 21,6 3,8 16 9 29 16 E 0,0
18.06.2018 16:00:00 22,2 4,3 15 8 32 18 E 0,0
18.06.2018 15:00:00 22,2 4,3 9 5 34 19 E 0,0
18.06.2018 14:00:00 22,2 4,6 8 5 31 17 E -
18.06.2018 13:00:00 21,1 3,2 11 6 28 15 E 0,0
18.06.2018 12:00:00 19,9 2,3 16 9 25 14 E 0,0
18.06.2018 11:00:00 18,5 1,1 13 7 19 11 E 0,0
18.06.2018 10:00:00 17,0 0,2 10 6 23 13 E 0,0
18.06.2018 09:00:00 14,3 1,9 17 9 27 15 E 0,0
18.06.2018 08:00:00 13,0 2,9 19 10 25 14 E -
18.06.2018 07:00:00 13,3 2,3 16 8 24 13 E 0,0
18.06.2018 06:00:00 12,8 1,7 17 9 24 13 E 0,0
18.06.2018 05:00:00 14,0 1,9 18 10 27 14 N 0,0
18.06.2018 04:00:00 13,4 1,1 16 8 26 14 E 0,0
18.06.2018 03:00:00 14,3 0,4 20 11 31 17 N 0,0
18.06.2018 02:00:00 12,9 -0,7 16 9 27 15 E -
18.06.2018 01:00:00 12,8 0,4 14 8 29 15 E 0,0
18.06.2018 00:00:00 13,5 0,4 20 11 26 14 E 0,0
17.06.2018 23:00:00 14,3 -0,5 20 11 32 17 E 0,0
17.06.2018 22:00:00 15,7 -3,3 21 12 32 17 E 0,0
17.06.2018 21:00:00 18,6 -3,6 23 12 36 19 E 0,0
17.06.2018 20:00:00 20,1 0,0 23 12 40 22 E -
17.06.2018 19:00:00 21,1 2,9 19 10 38 20 E 0,0
17.06.2018 18:00:00 20,6 3,2 23 13 39 21 E 0,0
17.06.2018 17:00:00 21,0 3,2 24 13 39 21 E 0,0
17.06.2018 16:00:00 21,2 4,3 21 11 35 19 E 0,0
17.06.2018 15:00:00 20,3 3,9 19 10 40 22 N 0,0
17.06.2018 14:00:00 19,4 3,0 24 13 39 21 N -
17.06.2018 13:00:00 19,4 3,6 22 12 34 18 E 0,0
17.06.2018 12:00:00 18,2 2,9 17 9 25 14 E 0,0
17.06.2018 11:00:00 17,6 1,9 12 7 19 11 E 0,0
17.06.2018 10:00:00 16,2 0,2 13 7 19 10 E 0,0
17.06.2018 09:00:00 15,9 -0,5 6 3 8 4 E 0,0
17.06.2018 08:00:00 14,5 -2,0 3 2 10 5 E -
17.06.2018 07:00:00 12,9 -3,3 8 4 11 6 E 0,0
17.06.2018 06:00:00 13,4 -3,0 8 4 21 12 E 0,0
17.06.2018 05:00:00 13,7 -3,0 6 3 13 7 E 0,0
17.06.2018 04:00:00 13,9 -3,9 9 5 16 8 E 0,0
17.06.2018 03:00:00 12,4 -3,0 12 6 21 11 E 0,0
17.06.2018 02:00:00 11,8 -0,7 15 8 22 12 E -
17.06.2018 01:00:00 12,2 -1,0 17 9 23 12 E 0,0
17.06.2018 00:00:00 13,0 -2,2 18 10 26 14 E 0,0
16.06.2018 23:00:00 13,9 -1,7 16 9 25 13 E 0,0
16.06.2018 22:00:00 14,9 -1,0 16 9 33 18 E 0,0
16.06.2018 21:00:00 18,5 0,2 22 12 34 18 E 0,0
16.06.2018 20:00:00 19,7 0,2 24 13 37 20 N -
16.06.2018 19:00:00 20,1 1,5 23 12 40 21 E 0,0
16.06.2018 18:00:00 20,4 3,2 24 13 38 21 N 0,0
16.06.2018 17:00:00 20,4 3,6 22 12 42 23 NNE 0,0
16.06.2018 16:00:00 20,1 4,1 24 13 44 24 N 0,0
16.06.2018 15:00:00 19,0 4,6 23 12 39 21 N 0,0
16.06.2018 14:00:00 19,1 5,1 26 14 39 21 N -
16.06.2018 13:00:00 18,9 4,3 19 11 36 19 E 0,0
16.06.2018 12:00:00 18,0 6,8 20 11 32 17 E 0,0
16.06.2018 11:00:00 17,1 6,2 15 8 23 12 E 0,0
16.06.2018 10:00:00 15,8 5,9 11 6 18 10 E 0,0
16.06.2018 09:00:00 14,2 5,0 12 7 21 11 E 0,0
16.06.2018 08:00:00 12,8 3,8 10 5 21 11 E -
16.06.2018 07:00:00 11,4 4,6 13 7 22 12 E 0,0
16.06.2018 06:00:00 12,0 5,8 16 8 22 12 E 0,0
16.06.2018 05:00:00 12,6 6,4 15 8 21 11 E 0,0
16.06.2018 04:00:00 12,3 7,8 16 9 21 11 E 0,0
16.06.2018 03:00:00 12,0 8,1 17 9 50 27 E 0,0
16.06.2018 02:00:00 12,8 8,1 14 8 21 11 E -
16.06.2018 01:00:00 12,8 7,7 16 8 20 11 E 0,0
16.06.2018 00:00:00 13,5 7,4 14 8 23 12 E 0,0
15.06.2018 23:00:00 15,4 5,9 15 8 25 13 E 0,0
15.06.2018 22:00:00 15,7 5,0 18 10 24 13 E 0,0
15.06.2018 21:00:00 18,7 4,5 14 7 24 13 E 0,0
15.06.2018 20:00:00 20,7 4,3 13 7 27 15 E -
15.06.2018 19:00:00 20,7 4,3 19 10 35 19 E 0,0
15.06.2018 18:00:00 20,9 4,5 21 11 34 19 E 0,0
15.06.2018 17:00:00 20,5 3,6 20 11 35 19 E 0,0
15.06.2018 16:00:00 21,1 5,0 22 12 34 19 N 0,0
15.06.2018 15:00:00 19,6 4,8 22 12 34 18 E 0,0
15.06.2018 14:00:00 18,7 4,1 19 10 29 15 E -
15.06.2018 13:00:00 18,1 3,6 18 10 30 16 E 0,0
15.06.2018 12:00:00 17,5 3,8 14 7 22 12 E 0,0
15.06.2018 11:00:00 16,3 2,7 11 6 18 10 E 0,0
15.06.2018 10:00:00 14,6 1,9 11 6 23 12 E 0,0
15.06.2018 09:00:00 12,5 0,2 16 9 26 14 N 0,0
15.06.2018 08:00:00 12,0 0,2 19 10 28 15 NE -
15.06.2018 07:00:00 11,0 -2,2 16 9 23 13 NE 0,0
15.06.2018 06:00:00 11,3 -2,2 20 11 31 17 NE 0,0
15.06.2018 05:00:00 10,8 -3,6 21 11 28 15 NE 0,0
15.06.2018 04:00:00 10,9 -4,8 16 9 27 14 NE 0,0
15.06.2018 03:00:00 12,2 -4,2 5 3 23 12 NE 0,0
15.06.2018 02:00:00 11,9 -3,0 14 8 29 15 NE -
15.06.2018 01:00:00 11,4 -3,3 15 8 36 20 NE 0,0
15.06.2018 00:00:00 12,3 -2,5 23 12 58 31 NE 0,0
14.06.2018 23:00:00 12,9 -1,2 24 13 41 22 NE 0,0
14.06.2018 22:00:00 13,2 -2,0 28 15 41 22 NE 0,0
14.06.2018 21:00:00 15,0 -1,7 23 12 33 18 N 0,0
14.06.2018 20:00:00 16,2 -1,0 24 13 40 21 N -
14.06.2018 19:00:00 17,3 0,0 23 13 46 25 E 0,0
14.06.2018 18:00:00 15,8 0,0 26 14 44 24 NNE 0,0
14.06.2018 17:00:00 14,6 0,4 26 14 39 21 WSW 0,0
14.06.2018 16:00:00 16,0 1,3 26 14 40 22 NNE 0,0
14.06.2018 15:00:00 14,5 1,7 27 14 39 21 NE 0,0
14.06.2018 14:00:00 13,6 1,5 26 14 46 25 N -
14.06.2018 13:00:00 12,7 1,3 29 16 45 24 N 0,0
14.06.2018 12:00:00 11,3 2,7 30 16 44 24 N 0,0
14.06.2018 11:00:00 10,8 2,7 29 16 49 27 NNE 0,0
14.06.2018 10:00:00 9,4 2,9 34 18 47 25 NE 0,0
14.06.2018 09:00:00 9,1 1,5 22 12 42 23 NNE 0,0
14.06.2018 08:00:00 7,4 1,7 11 6 21 11 E -
14.06.2018 07:00:00 7,5 1,3 10 5 22 12 E 0,0
14.06.2018 06:00:00 8,4 0,9 14 8 38 21 E 0,0
14.06.2018 05:00:00 8,3 0,9 15 8 42 23 N 0,0
14.06.2018 04:00:00 6,9 0,9 23 12 36 19 N 0,0
14.06.2018 03:00:00 9,1 0,0 22 12 32 18 N 0,0
14.06.2018 02:00:00 7,4 0,2 15 8 29 15 E -
14.06.2018 01:00:00 8,7 0,4 20 11 29 16 E 0,0
14.06.2018 00:00:00 7,7 1,1 17 9 27 15 N 0,0
13.06.2018 23:00:00 8,4 1,1 18 10 33 18 E 0,0
13.06.2018 22:00:00 9,5 0,6 22 12 32 18 N 0,0
13.06.2018 21:00:00 11,5 -0,3 22 12 41 22 N 0,0
13.06.2018 20:00:00 13,8 -0,7 23 13 46 25 N -

tt = Température de l'air
td = dewpoint
ff = Vitesse du vent
fx = gusts
dd = Direction du vent
rr = Quantités de précipitations

stations d'obs. à proximité